Time,TemperatureF,DewpointF,PressureIn,WindDirection,WindDirectionDegrees,WindSpeedMPH,WindSpeedGustMPH,Humidity,HourlyPrecipIn,Conditions,Clouds,dailyrainin,SoftwareType,DateUTC
2013-01-14 00:08:00,17.9,-1.0,30.23,North,357,2.0,2.0,43,0.00,,,0.00,weatherlink.com 1.10,2013-01-14 07:08:00,
2013-01-14 00:23:00,17.5,-1.0,30.23,North,5,2.0,2.0,44,0.00,,,0.00,weatherlink.com 1.10,2013-01-14 07:23:00,
2013-01-14 00:38:00,18.0,-1.0,30.23,NNW,345,1.0,4.0,43,0.00,,,0.00,weatherlink.com 1.10,2013-01-14 07:38:00,
2013-01-14 00:53:00,17.8,-1.0,30.23,North,360,1.0,3.0,43,0.00,,,0.00,weatherlink.com 1.10,2013-01-14 07:53:00,
2013-01-14 01:08:00,17.8,-1.0,30.23,NNE,20,0.0,4.0,44,0.00,,,0.00,weatherlink.com 1.10,2013-01-14 08:08:00,
2013-01-14 01:23:00,18.3,1.0,30.23,East,92,0.0,2.0,47,0.00,,,0.00,weatherlink.com 1.10,2013-01-14 08:23:00,
2013-01-14 01:38:00,17.4,0.0,30.24,East,101,1.0,2.0,46,0.00,,,0.00,weatherlink.com 1.10,2013-01-14 08:38:00,
2013-01-14 01:53:00,17.3,-1.0,30.24,North,7,0.0,2.0,45,0.00,,,0.00,weatherlink.com 1.10,2013-01-14 08:53:00,
2013-01-14 02:09:00,18.0,-1.0,30.24,North,5,0.0,2.0,44,0.00,,,0.00,weatherlink.com 1.10,2013-01-14 09:09:00,
2013-01-14 02:24:00,17.7,-1.0,30.24,North,1,1.0,2.0,44,0.00,,,0.00,weatherlink.com 1.10,2013-01-14 09:24:00,
2013-01-14 02:39:00,17.1,-1.0,30.25,North,1,0.0,0.0,46,0.00,,,0.00,weatherlink.com 1.10,2013-01-14 09:39:00,
2013-01-14 02:54:00,16.4,-1.0,30.25,North,1,0.0,0.0,47,0.00,,,0.00,weatherlink.com 1.10,2013-01-14 09:54:00,
2013-01-14 03:09:00,15.8,-1.0,30.25,North,359,0.0,1.0,47,0.00,,,0.00,weatherlink.com 1.10,2013-01-14 10:09:00,
2013-01-14 03:24:00,15.9,0.0,30.25,North,359,0.0,0.0,49,0.00,,,0.00,weatherlink.com 1.10,2013-01-14 10:24:00,
2013-01-14 03:39:00,17.4,-1.0,30.25,North,360,0.0,0.0,45,0.00,,,0.00,weatherlink.com 1.10,2013-01-14 10:39:00,
2013-01-14 03:54:00,15.2,-1.0,30.25,North,360,0.0,0.0,48,0.00,,,0.00,weatherlink.com 1.10,2013-01-14 10:54:00,
2013-01-14 04:09:00,14.8,-1.0,30.25,North,360,0.0,0.0,49,0.00,,,0.00,weatherlink.com 1.10,2013-01-14 11:09:00,
2013-01-14 04:24:00,15.2,-1.0,30.24,North,1,0.0,0.0,48,0.00,,,0.00,weatherlink.com 1.10,2013-01-14 11:24:00,
2013-01-14 04:39:00,16.4,0.0,30.24,NNE,26,0.0,0.0,49,0.00,,,0.00,weatherlink.com 1.10,2013-01-14 11:39:00,
2013-01-14 04:54:00,16.4,1.0,30.24,North,349,1.0,1.0,51,0.00,,,0.00,weatherlink.com 1.10,2013-01-14 11:54:00,
2013-01-14 05:09:00,16.3,1.0,30.24,ESE,102,0.0,2.0,50,0.00,,,0.00,weatherlink.com 1.10,2013-01-14 12:09:00,
2013-01-14 05:24:00,16.3,1.0,30.25,North,352,0.0,2.0,50,0.00,,,0.00,weatherlink.com 1.10,2013-01-14 12:24:00,
2013-01-14 05:40:00,16.9,2.0,30.25,NNW,338,0.0,1.0,51,0.00,,,0.00,weatherlink.com 1.10,2013-01-14 12:40:00,
2013-01-14 05:55:00,16.8,2.0,30.24,NNW,338,0.0,0.0,53,0.00,,,0.00,weatherlink.com 1.10,2013-01-14 12:55:00,
2013-01-14 06:10:00,16.6,4.0,30.25,West,275,0.0,0.0,57,0.00,,,0.00,weatherlink.com 1.10,2013-01-14 13:10:00,
2013-01-14 06:25:00,16.9,4.0,30.25,North,354,0.0,2.0,57,0.00,,,0.00,weatherlink.com 1.10,2013-01-14 13:25:00,
2013-01-14 06:40:00,16.6,4.0,30.25,North,352,0.0,2.0,58,0.00,,,0.00,weatherlink.com 1.10,2013-01-14 13:40:00,
2013-01-14 06:55:00,16.7,5.0,30.26,North,6,0.0,3.0,59,0.00,,,0.00,weatherlink.com 1.10,2013-01-14 13:55:00,
2013-01-14 07:10:00,16.3,5.0,30.26,North,1,0.0,3.0,60,0.00,,,0.00,weatherlink.com 1.10,2013-01-14 14:10:00,
2013-01-14 07:25:00,16.4,4.0,30.27,North,349,0.0,0.0,59,0.00,,,0.00,weatherlink.com 1.10,2013-01-14 14:25:00,
2013-01-14 07:40:00,16.5,5.0,30.27,North,349,0.0,2.0,62,0.00,,,0.00,weatherlink.com 1.10,2013-01-14 14:40:00,
2013-01-14 07:55:00,16.9,6.0,30.27,NNW,340,1.0,3.0,63,0.00,,,0.00,weatherlink.com 1.10,2013-01-14 14:55:00,
2013-01-14 08:10:00,17.4,7.0,30.28,NNW,336,0.0,3.0,64,0.00,,,0.00,weatherlink.com 1.10,2013-01-14 15:10:00,
2013-01-14 08:25:00,18.3,8.0,30.27,North,349,0.0,2.0,64,0.00,,,0.00,weatherlink.com 1.10,2013-01-14 15:25:00,
2013-01-14 08:40:00,19.4,8.0,30.28,NW,309,1.0,1.0,62,0.00,,,0.00,weatherlink.com 1.10,2013-01-14 15:40:00,
2013-01-14 08:55:00,19.8,9.0,30.28,NW,318,1.0,3.0,62,0.00,,,0.00,weatherlink.com 1.10,2013-01-14 15:55:00,
2013-01-14 09:26:00,22.9,10.0,30.27,North,10,0.0,0.0,57,0.00,,,0.00,weatherlink.com 1.10,2013-01-14 16:26:00,
2013-01-14 09:41:00,23.4,9.0,30.27,NNW,347,1.0,3.0,55,0.00,,,0.00,weatherlink.com 1.10,2013-01-14 16:41:00,
2013-01-14 09:56:00,23.8,10.0,30.26,North,5,1.0,3.0,56,0.00,,,0.00,weatherlink.com 1.10,2013-01-14 16:56:00,
2013-01-14 10:11:00,24.6,10.0,30.26,NE,43,0.0,3.0,54,0.00,,,0.00,weatherlink.com 1.10,2013-01-14 17:11:00,
2013-01-14 10:26:00,26.2,10.0,30.25,ESE,108,0.0,5.0,51,0.00,,,0.00,weatherlink.com 1.10,2013-01-14 17:26:00,
2013-01-14 10:41:00,26.6,12.0,30.24,SE,139,1.0,6.0,54,0.00,,,0.00,weatherlink.com 1.10,2013-01-14 17:41:00,
2013-01-14 10:56:00,27.0,12.0,30.23,East,101,6.0,9.0,54,0.00,,,0.00,weatherlink.com 1.10,2013-01-14 17:56:00,
2013-01-14 11:11:00,25.8,15.0,30.23,ESE,103,1.0,9.0,65,0.00,,,0.00,weatherlink.com 1.10,2013-01-14 18:11:00,
2013-01-14 11:26:00,25.6,17.0,30.22,ESE,120,4.0,9.0,70,0.00,,,0.00,weatherlink.com 1.10,2013-01-14 18:26:00,
2013-01-14 11:41:00,26.2,18.0,30.21,SSE,152,2.0,6.0,71,0.00,,,0.00,weatherlink.com 1.10,2013-01-14 18:41:00,
2013-01-14 11:56:00,26.2,17.0,30.20,SW,219,0.0,4.0,69,0.00,,,0.00,weatherlink.com 1.10,2013-01-14 18:56:00,
2013-01-14 12:11:00,26.7,17.0,30.19,SSE,165,0.0,3.0,67,0.00,,,0.00,weatherlink.com 1.10,2013-01-14 19:11:00,
2013-01-14 12:27:00,27.0,18.0,30.19,SW,231,0.0,1.0,70,0.00,,,0.00,weatherlink.com 1.10,2013-01-14 19:27:00,
2013-01-14 12:42:00,26.7,20.0,30.18,NW,321,0.0,0.0,75,0.00,,,0.00,weatherlink.com 1.10,2013-01-14 19:42:00,
2013-01-14 12:57:00,26.2,20.0,30.18,WNW,291,0.0,1.0,76,0.00,,,0.00,weatherlink.com 1.10,2013-01-14 19:57:00,
2013-01-14 13:12:00,26.3,20.0,30.17,NW,317,0.0,4.0,78,0.00,,,0.00,weatherlink.com 1.10,2013-01-14 20:12:00,
2013-01-14 13:27:00,27.1,21.0,30.17,NW,325,0.0,2.0,79,0.00,,,0.00,weatherlink.com 1.10,2013-01-14 20:27:00,
2013-01-14 13:42:00,27.8,21.0,30.17,NNW,345,1.0,4.0,75,0.00,,,0.00,weatherlink.com 1.10,2013-01-14 20:42:00,
2013-01-14 13:57:00,28.0,20.0,30.18,SW,228,0.0,2.0,71,0.00,,,0.00,weatherlink.com 1.10,2013-01-14 20:57:00,
2013-01-14 14:12:00,27.3,19.0,30.18,North,356,1.0,4.0,72,0.00,,,0.00,weatherlink.com 1.10,2013-01-14 21:12:00,
2013-01-14 14:27:00,27.6,21.0,30.18,NE,43,1.0,3.0,76,0.00,,,0.00,weatherlink.com 1.10,2013-01-14 21:27:00,
2013-01-14 14:42:00,28.2,19.0,30.19,NNE,20,3.0,3.0,68,0.00,,,0.00,weatherlink.com 1.10,2013-01-14 21:42:00,
2013-01-14 14:57:00,28.3,20.0,30.19,NNE,19,3.0,3.0,71,0.00,,,0.00,weatherlink.com 1.10,2013-01-14 21:57:00,
2013-01-14 15:27:00,27.4,18.0,30.20,ESE,111,0.0,4.0,69,0.00,,,0.00,weatherlink.com 1.10,2013-01-14 22:27:00,
2013-01-14 15:42:00,28.0,18.0,30.20,ESE,109,0.0,0.0,65,0.00,,,0.00,weatherlink.com 1.10,2013-01-14 22:42:00,
2013-01-14 15:58:00,28.2,18.0,30.20,North,350,0.0,0.0,67,0.00,,,0.00,weatherlink.com 1.10,2013-01-14 22:58:00,
2013-01-14 16:13:00,28.9,19.0,30.20,NW,321,0.0,2.0,66,0.00,,,0.00,weatherlink.com 1.10,2013-01-14 23:13:00,
2013-01-14 16:28:00,28.4,18.0,30.21,North,7,1.0,2.0,66,0.00,,,0.00,weatherlink.com 1.10,2013-01-14 23:28:00,
2013-01-14 16:43:00,28.4,19.0,30.21,North,4,1.0,2.0,67,0.00,,,0.00,weatherlink.com 1.10,2013-01-14 23:43:00,
2013-01-14 16:58:00,27.1,19.0,30.22,NW,320,0.0,0.0,70,0.00,,,0.00,weatherlink.com 1.10,2013-01-14 23:58:00,
2013-01-14 17:13:00,26.4,19.0,30.23,North,350,0.0,2.0,72,0.00,,,0.00,weatherlink.com 1.10,2013-01-15 00:13:00,
2013-01-14 17:28:00,25.0,18.0,30.23,North,353,0.0,2.0,76,0.00,,,0.00,weatherlink.com 1.10,2013-01-15 00:28:00,
2013-01-14 17:43:00,24.2,18.0,30.25,NNW,330,2.0,4.0,76,0.00,,,0.00,weatherlink.com 1.10,2013-01-15 00:43:00,
2013-01-14 17:58:00,24.3,18.0,30.26,NE,56,2.0,7.0,77,0.00,,,0.00,weatherlink.com 1.10,2013-01-15 00:58:00,
2013-01-14 18:13:00,23.1,17.0,30.27,NNE,16,3.0,7.0,78,0.00,,,0.00,weatherlink.com 1.10,2013-01-15 01:13:00,
2013-01-14 18:28:00,22.7,17.0,30.28,NNW,335,4.0,6.0,80,0.00,,,0.00,weatherlink.com 1.10,2013-01-15 01:28:00,
2013-01-14 18:43:00,22.4,17.0,30.29,North,7,3.0,5.0,81,0.00,,,0.00,weatherlink.com 1.10,2013-01-15 01:43:00,
2013-01-14 18:58:00,21.8,17.0,30.30,NE,34,1.0,6.0,83,0.00,,,0.00,weatherlink.com 1.10,2013-01-15 01:58:00,
2013-01-14 19:13:00,21.9,18.0,30.29,North,360,0.0,1.0,85,0.00,,,0.00,weatherlink.com 1.10,2013-01-15 02:13:00,
2013-01-14 19:29:00,21.8,18.0,30.30,North,352,1.0,4.0,84,0.00,,,0.00,weatherlink.com 1.10,2013-01-15 02:29:00,
2013-01-14 19:44:00,21.2,16.0,30.31,North,355,0.0,4.0,81,0.00,,,0.00,weatherlink.com 1.10,2013-01-15 02:44:00,
2013-01-14 19:59:00,21.0,15.0,30.31,NNW,344,3.0,7.0,77,0.00,,,0.00,weatherlink.com 1.10,2013-01-15 02:59:00,
2013-01-14 20:14:00,20.7,12.0,30.32,NNW,344,2.0,11.0,69,0.00,,,0.00,weatherlink.com 1.10,2013-01-15 03:14:00,
2013-01-14 20:29:00,20.2,11.0,30.32,North,355,2.0,6.0,68,0.00,,,0.00,weatherlink.com 1.10,2013-01-15 03:29:00,
2013-01-14 20:44:00,19.6,10.0,30.32,North,1,0.0,7.0,67,0.00,,,0.00,weatherlink.com 1.10,2013-01-15 03:44:00,
2013-01-14 20:59:00,19.3,10.0,30.33,NNE,12,6.0,9.0,66,0.00,,,0.00,weatherlink.com 1.10,2013-01-15 03:59:00,
2013-01-14 21:14:00,18.9,10.0,30.33,NNE,29,0.0,4.0,67,0.00,,,0.00,weatherlink.com 1.10,2013-01-15 04:14:00,
2013-01-14 21:29:00,18.7,9.0,30.33,North,351,3.0,7.0,66,0.00,,,0.00,weatherlink.com 1.10,2013-01-15 04:29:00,
2013-01-14 21:44:00,18.5,9.0,30.34,NE,37,1.0,3.0,66,0.00,,,0.00,weatherlink.com 1.10,2013-01-15 04:44:00,
2013-01-14 21:59:00,18.3,9.0,30.34,North,359,1.0,4.0,66,0.00,,,0.00,weatherlink.com 1.10,2013-01-15 04:59:00,
2013-01-14 22:14:00,18.0,8.0,30.34,NNW,347,3.0,6.0,66,0.00,,,0.00,weatherlink.com 1.10,2013-01-15 05:14:00,
2013-01-14 22:29:00,17.7,8.0,30.35,North,352,0.0,5.0,66,0.00,,,0.00,weatherlink.com 1.10,2013-01-15 05:29:00,
2013-01-14 22:44:00,17.0,8.0,30.35,NNW,347,0.0,4.0,69,0.00,,,0.00,weatherlink.com 1.10,2013-01-15 05:44:00,
2013-01-14 22:59:00,16.5,7.0,30.35,North,351,0.0,5.0,67,0.00,,,0.00,weatherlink.com 1.10,2013-01-15 05:59:00,
2013-01-14 23:15:00,16.0,7.0,30.36,NNW,333,0.0,1.0,68,0.00,,,0.00,weatherlink.com 1.10,2013-01-15 06:15:00,
2013-01-14 23:30:00,15.3,7.0,30.36,North,1,2.0,5.0,69,0.00,,,0.00,weatherlink.com 1.10,2013-01-15 06:30:00,
2013-01-14 23:45:00,15.5,7.0,30.35,North,4,0.0,2.0,68,0.00,,,0.00,weatherlink.com 1.10,2013-01-15 06:45:00,